Pagina principale
METAR-TAF:

METAR-TAF

Aeroporti :

Alpnach, Svizzera

latitudine: 46-56-19N, longitudine: 8-17-03E, altezza: 440 m

Osservazione

Il bollettino è stato emesso 39 minuti fa, alle 12:50 UTC
Vento 2 kt da direzioni variabili
Temperature 7°C
Umidità 66%
Pressione 1005 hPa
Visibilità 10 km o più
Poco nuvoloso ad un'altezza di 6700 ft
Cielo coperto ad un'altezza di 9000 ft

METAR: LSMA 131250Z VRB02KT 9999 FEW067 OVC090 07/01 Q1005 RMK BLU

Ora: 14:29 (13:29 UTC)


TAF: mancante

Osservazioni e previsioni meteorologiche di più di 4000 aeroporti (messaggi METAR e TAF).

Le stazioni disponibili sono rappresentate dai dischi gialli e rossi sulla carta.

Puntare il mouse per vedere il nome della stazione.

Clicca sopra per visualizzare le osservazioni e previsioni meteorologiche.

Per cambiare la mappa : fare clic sui pulsanti verdi con una croce nera per ingrandire, il pulsante verde con un trattino per diminuire, o sulla freccia verde per le mappe adiacenti.


METAR-TAF: